Time;durP1;ratioP1;P1;durP2;ratioP2;P2;SDS_P1;SDS_P2;PMS_P1;PMS_P2;Temp;Humidity;BMP_temperature;BMP_pressure;BME280_temperature;BME280_humidity;BME280_pressure;Samples;Min_cycle;Max_cycle;Signal;HPM_P1;HPM_P2
2023/01/07 00:02:56;;;;;;;5.70;3.47;;;;;;;-11.58;78.01;100686.72;4844686;28;20383;-68
2023/01/07 00:05:51;;;;;;;8.70;3.65;;;;;;;-11.52;77.84;100687.22;4819821;28;20104;-67
2023/01/07 00:08:54;;;;;;;12.80;6.57;;;;;;;-11.42;77.85;100694.75;4871691;28;20411;-67
2023/01/07 00:11:50;;;;;;;30.58;10.65;;;;;;;-11.67;77.93;100640.66;4849383;28;20401;-68
2023/01/07 00:14:30;;;;;;;37.25;13.75;;;;;;;-11.29;77.83;100697.44;4854849;28;20054;-69
2023/01/07 00:20:16;;;;;;;11.88;6.13;;;;;;;-11.17;77.71;100696.63;4792739;28;20052;-68
2023/01/07 00:23:09;;;;;;;7.72;3.80;;;;;;;-11.05;77.63;100677.38;4832077;28;20075;-68
2023/01/07 00:26:07;;;;;;;5.95;3.58;;;;;;;-10.78;77.46;100692.84;4842012;28;20370;-69
2023/01/07 00:28:59;;;;;;;6.60;3.75;;;;;;;-10.63;77.30;100688.97;4830498;28;20081;-69
2023/01/07 00:31:42;;;;;;;7.45;3.75;;;;;;;-10.48;77.04;100690.09;4849413;28;20852;-69
2023/01/07 00:34:22;;;;;;;6.47;3.90;;;;;;;-10.37;76.44;100687.47;4790009;28;20061;-69
2023/01/07 00:40:19;;;;;;;6.95;4.22;;;;;;;-10.09;75.64;100691.19;4863478;28;20277;-71
2023/01/07 00:43:20;;;;;;;7.20;4.40;;;;;;;-10.03;74.96;100681.56;4837940;28;20050;-70
2023/01/07 00:45:57;;;;;;;8.63;4.72;;;;;;;-9.93;74.61;100682.19;4815163;28;20046;-70
2023/01/07 00:48:29;;;;;;;8.68;4.32;;;;;;;-10.65;74.64;100513.72;4860066;28;20056;-71
2023/01/07 00:51:10;;;;;;;11.13;5.05;;;;;;;-9.47;74.43;100680.41;4863279;28;20061;-71
2023/01/07 00:53:56;;;;;;;12.43;5.68;;;;;;;-9.95;73.81;100570.00;4858878;28;20065;-70
2023/01/07 00:56:40;;;;;;;9.38;5.22;;;;;;;-9.32;73.32;100684.00;4909224;28;20039;-73
2023/01/07 00:59:35;;;;;;;8.27;3.47;;;;;;;-9.41;72.66;100685.88;4944661;28;20039;-71
2023/01/07 01:02:27;;;;;;;7.22;3.50;;;;;;;-9.45;71.72;100684.81;4907189;28;20054;-71
2023/01/07 01:05:00;;;;;;;8.13;4.10;;;;;;;-9.50;71.83;100680.19;4911949;28;20075;-71
2023/01/07 01:07:45;;;;;;;8.15;3.72;;;;;;;-9.33;71.66;100687.31;4940623;28;20520;-72
2023/01/07 01:10:49;;;;;;;7.88;3.90;;;;;;;-9.21;70.79;100678.03;4919099;28;20074;-71
2023/01/07 01:13:46;;;;;;;9.20;4.35;;;;;;;-9.17;69.91;100685.06;4975598;28;20039;-72
2023/01/07 01:16:45;;;;;;;8.57;4.10;;;;;;;-9.09;70.11;100699.91;4947570;28;20044;-70
2023/01/07 01:19:33;;;;;;;5.65;3.70;;;;;;;-9.25;70.10;100683.66;4957861;28;20434;-71
2023/01/07 01:22:20;;;;;;;7.97;3.90;;;;;;;-9.37;69.98;100687.84;4933201;28;20100;-71
2023/01/07 01:25:05;;;;;;;5.07;3.40;;;;;;;-9.46;69.53;100703.28;4936695;28;20069;-73
2023/01/07 01:28:00;;;;;;;8.35;4.15;;;;;;;-9.52;69.34;100697.78;4921710;28;20092;-71
2023/01/07 01:33:32;;;;;;;10.90;4.82;;;;;;;-9.71;68.27;100705.72;4924690;28;20060;-72
2023/01/07 01:36:19;;;;;;;9.45;4.95;;;;;;;-9.73;68.10;100692.09;4902246;28;20044;-75
2023/01/07 01:39:02;;;;;;;10.27;4.95;;;;;;;-9.43;67.94;100692.50;4934386;28;20056;-74
2023/01/07 01:41:44;;;;;;;9.95;5.78;;;;;;;-9.39;67.01;100689.41;4947530;28;20047;-72
2023/01/07 01:44:56;;;;;;;13.18;6.60;;;;;;;-9.55;66.90;100637.75;4940185;28;20059;-72
2023/01/07 01:47:56;;;;;;;11.55;5.25;;;;;;;-9.15;66.26;100687.69;4951590;28;20070;-75
2023/01/07 01:50:53;;;;;;;9.38;5.18;;;;;;;-9.13;65.96;100673.50;4919235;28;20053;-71
2023/01/07 01:53:54;;;;;;;8.30;4.93;;;;;;;-9.04;64.87;100674.09;4910630;28;20062;-72
2023/01/07 01:56:50;;;;;;;11.82;4.82;;;;;;;-8.93;64.49;100673.19;4911232;28;20679;-71
2023/01/07 01:59:45;;;;;;;10.90;4.63;;;;;;;-8.91;63.99;100660.63;4903561;28;20140;-72
2023/01/07 02:02:51;;;;;;;9.75;4.57;;;;;;;-8.64;64.63;100661.59;4904448;28;20234;-73
2023/01/07 02:05:43;;;;;;;8.80;5.05;;;;;;;-8.44;64.22;100646.84;4912203;28;20052;-72
2023/01/07 02:11:28;;;;;;;12.23;4.65;;;;;;;-8.01;63.10;100647.94;4929261;28;20047;-73
2023/01/07 02:14:32;;;;;;;8.98;4.90;;;;;;;-8.17;61.80;100604.63;4926780;28;20049;-75
2023/01/07 02:17:21;;;;;;;9.43;4.28;;;;;;;-8.00;60.81;100619.25;4908756;28;20086;-73
2023/01/07 02:20:23;;;;;;;;;;;;;;;-7.86;61.34;100638.75;4945368;28;20707;-76
2023/01/07 02:23:43;;;;;;;7.93;4.18;;;;;;;-7.87;60.93;100631.91;4946828;28;19932;-75
2023/01/07 02:26:54;;;;;;;10.15;5.05;;;;;;;-8.21;60.22;100572.22;4950248;28;20035;-72
2023/01/07 02:30:08;;;;;;;8.68;4.50;;;;;;;-7.81;60.67;100637.38;4934614;28;20059;-73
2023/01/07 02:33:10;;;;;;;11.02;4.10;;;;;;;-7.61;60.61;100618.31;4903151;28;20064;-71
2023/01/07 02:36:21;;;;;;;7.05;4.35;;;;;;;-7.74;60.27;100574.31;4931588;28;20065;-70
2023/01/07 02:39:07;;;;;;;8.10;4.38;;;;;;;-7.48;59.36;100622.50;4920328;28;20068;-72
2023/01/07 02:41:53;;;;;;;9.57;4.70;;;;;;;-7.60;59.25;100601.44;4926895;28;20115;-72
2023/01/07 02:44:40;;;;;;;10.43;4.57;;;;;;;-7.50;59.16;100606.28;4913315;28;20066;-72
2023/01/07 02:47:34;;;;;;;9.80;3.95;;;;;;;-7.41;58.28;100623.75;4915096;28;20059;-71
2023/01/07 02:50:24;;;;;;;9.00;4.28;;;;;;;-7.52;57.80;100609.50;4925826;28;20416;-71
2023/01/07 02:53:02;;;;;;;7.95;3.83;;;;;;;-7.41;58.46;100614.47;4929821;28;20073;-71
2023/01/07 02:56:07;;;;;;;8.50;4.20;;;;;;;-7.40;57.77;100615.34;4945490;28;20081;-70
2023/01/07 02:59:05;;;;;;;6.80;3.70;;;;;;;-7.41;57.15;100624.63;4905656;28;20051;-74
2023/01/07 03:02:18;;;;;;;7.53;3.92;;;;;;;-8.16;56.97;100502.41;4942392;28;20054;-71
2023/01/07 03:05:30;;;;;;;8.60;3.42;;;;;;;-7.46;57.05;100620.03;4919468;28;20167;-71
2023/01/07 03:11:41;;;;;;;8.32;3.67;;;;;;;-7.64;56.46;100572.47;4940285;28;20051;-69
2023/01/07 03:17:33;;;;;;;8.20;4.15;;;;;;;-7.42;55.98;100612.69;4932985;28;20155;-71
2023/01/07 03:20:24;;;;;;;6.75;3.70;;;;;;;-7.54;56.50;100601.78;4887741;28;20134;-71
2023/01/07 03:23:18;;;;;;;7.60;3.90;;;;;;;-7.49;56.44;100618.19;4913188;28;20052;-71
2023/01/07 03:26:16;;;;;;;11.70;4.55;;;;;;;-8.25;56.00;100496.00;4931370;28;20108;-71
2023/01/07 03:29:31;;;;;;;8.95;4.10;;;;;;;-7.66;56.59;100601.03;4944723;28;20044;-73
2023/01/07 03:32:17;;;;;;;7.18;3.65;;;;;;;-7.59;57.06;100613.31;4935431;28;20431;-72
2023/01/07 03:35:10;;;;;;;7.65;3.42;;;;;;;-7.79;57.48;100565.56;4941556;28;20048;-71
2023/01/07 03:38:04;;;;;;;8.50;3.80;;;;;;;-7.44;57.50;100609.22;4930941;28;20052;-71
2023/01/07 03:40:51;;;;;;;7.53;3.65;;;;;;;-7.34;57.54;100622.44;4850409;28;20073;-70
2023/01/07 03:43:52;;;;;;;10.65;4.28;;;;;;;-7.34;56.91;100612.28;4945555;28;20048;-69
2023/01/07 03:46:38;;;;;;;9.20;4.20;;;;;;;-7.32;57.18;100613.28;4925170;28;20049;-70
2023/01/07 03:49:26;;;;;;;5.55;3.67;;;;;;;-7.36;57.12;100612.22;4895742;28;20044;-71
2023/01/07 03:52:21;;;;;;;6.88;3.85;;;;;;;-7.43;56.78;100622.78;4934787;28;20060;-73
2023/01/07 03:57:49;;;;;;;10.13;4.20;;;;;;;-7.61;56.77;100620.00;4923204;28;20121;-71
2023/01/07 04:00:29;;;;;;;7.30;4.22;;;;;;;-7.60;56.99;100612.47;4926379;27;20116;-72
2023/01/07 04:03:28;;;;;;;7.35;4.13;;;;;;;-7.52;56.79;100615.47;4920805;28;20473;-70
2023/01/07 04:06:12;;;;;;;9.55;4.53;;;;;;;-7.55;56.63;100620.34;4872569;28;20052;-71
2023/01/07 04:09:13;;;;;;;11.63;4.88;;;;;;;-7.49;56.88;100610.56;4920533;28;20225;-72
2023/01/07 04:11:52;;;;;;;10.60;4.70;;;;;;;-7.39;56.87;100615.44;4884480;28;20128;-68
2023/01/07 04:14:55;;;;;;;9.73;4.75;;;;;;;-7.42;56.61;100612.69;4939024;27;20097;-71
2023/01/07 04:17:30;;;;;;;;;;;;;;;-7.47;56.40;100603.94;4967455;28;20043;-71
2023/01/07 04:20:22;;;;;;;8.82;5.20;;;;;;;-7.58;56.53;100589.72;4953275;28;19924;-69
2023/01/07 04:23:01;;;;;;;9.48;4.03;;;;;;;-7.58;56.81;100610.03;4939083;28;20107;-72
2023/01/07 04:25:42;;;;;;;9.35;4.45;;;;;;;-7.65;56.87;100607.88;4931537;28;20106;-72
2023/01/07 04:28:21;;;;;;;9.90;4.90;;;;;;;-7.68;57.04;100610.25;4950058;27;20055;-71
2023/01/07 04:31:07;;;;;;;10.38;6.13;;;;;;;-7.76;57.05;100598.72;4905742;28;20078;-75
2023/01/07 04:33:46;;;;;;;10.98;4.60;;;;;;;-7.76;56.83;100613.94;4933586;28;20551;-74
2023/01/07 04:39:06;;;;;;;16.85;7.93;;;;;;;-7.70;57.06;100616.88;4929127;27;20051;-72
2023/01/07 04:42:17;;;;;;;12.18;6.90;;;;;;;-7.73;57.29;100619.22;4960596;27;20592;-71
2023/01/07 04:47:43;;;;;;;11.07;5.13;;;;;;;-7.75;57.32;100615.72;4971283;27;20051;-71
2023/01/07 04:50:28;;;;;;;8.65;4.47;;;;;;;-7.83;57.92;100621.19;4952794;27;20045;-74
2023/01/07 04:53:09;;;;;;;11.20;5.65;;;;;;;-7.83;58.28;100628.78;4930964;28;20145;-69
2023/01/07 04:56:16;;;;;;;10.10;4.53;;;;;;;-7.78;58.33;100630.75;4926915;28;20410;-69
2023/01/07 04:58:56;;;;;;;7.72;4.10;;;;;;;-7.72;58.24;100633.66;4920871;28;20125;-70
2023/01/07 05:01:49;;;;;;;7.88;4.68;;;;;;;-7.76;58.38;100644.38;4942171;28;20446;-69
2023/01/07 05:04:43;;;;;;;7.90;4.55;;;;;;;-7.74;58.24;100637.75;4944148;28;20308;-72
2023/01/07 05:07:31;;;;;;;10.50;4.78;;;;;;;-7.83;58.09;100621.19;4916253;28;20083;-72
2023/01/07 05:10:11;;;;;;;8.65;4.93;;;;;;;-7.83;57.58;100625.38;4948823;28;20262;-70
2023/01/07 05:12:56;;;;;;;8.30;4.47;;;;;;;-7.78;58.02;100645.97;4942116;28;20056;-69
2023/01/07 05:15:43;;;;;;;7.93;4.38;;;;;;;-7.85;57.51;100654.84;4906258;28;20075;-71
2023/01/07 05:18:46;;;;;;;8.85;4.22;;;;;;;-7.95;57.40;100652.50;4923721;28;20059;-71
2023/01/07 05:22:04;;;;;;;10.93;4.40;;;;;;;-7.89;57.87;100653.75;4922312;28;20046;-69
2023/01/07 05:24:53;;;;;;;7.20;4.03;;;;;;;-7.88;57.79;100665.69;4940260;28;20054;-70
2023/01/07 05:27:36;;;;;;;7.32;3.55;;;;;;;-7.98;57.60;100663.34;4874938;28;20102;-70
2023/01/07 05:30:14;;;;;;;12.15;4.50;;;;;;;-7.98;58.05;100665.88;4876862;28;20115;-69
2023/01/07 05:33:13;;;;;;;9.00;4.53;;;;;;;-8.07;58.19;100660.19;4905426;28;20052;-70
2023/01/07 05:36:03;;;;;;;7.38;4.28;;;;;;;-8.13;58.62;100664.91;4906670;28;20065;-69
2023/01/07 05:38:46;;;;;;;9.98;4.45;;;;;;;-8.20;58.60;100666.16;4936086;28;20075;-69
2023/01/07 05:41:23;;;;;;;14.20;4.38;;;;;;;-8.21;58.80;100674.53;4908907;28;20060;-69
2023/01/07 05:44:04;;;;;;;8.63;5.07;;;;;;;-8.30;58.95;100674.81;4923823;28;20073;-70
2023/01/07 05:46:50;;;;;;;10.98;5.93;;;;;;;-8.38;59.18;100675.97;4886230;28;20062;-73
2023/01/07 05:49:36;;;;;;;11.40;5.28;;;;;;;-8.40;59.38;100682.63;4920165;28;20408;-68
2023/01/07 05:52:15;;;;;;;9.02;4.95;;;;;;;-8.47;59.26;100685.53;4909049;28;20036;-72
2023/01/07 05:55:04;;;;;;;10.00;4.00;;;;;;;-8.54;59.63;100683.34;4925741;28;20062;-71
2023/01/07 05:58:12;;;;;;;12.60;4.00;;;;;;;-8.65;59.87;100679.25;4891050;28;20119;-69
2023/01/07 06:01:06;;;;;;;7.28;3.70;;;;;;;-8.73;60.27;100682.16;4892738;28;20040;-69
2023/01/07 06:03:54;;;;;;;7.57;4.20;;;;;;;-8.80;60.29;100684.16;4895413;28;20080;-69
2023/01/07 06:06:38;;;;;;;5.40;3.53;;;;;;;-8.83;60.90;100679.78;4895823;28;20072;-68
2023/01/07 06:09:21;;;;;;;6.95;3.90;;;;;;;-8.82;61.06;100686.56;4863942;28;21428;-70
2023/01/07 06:12:06;;;;;;;8.68;4.60;;;;;;;-8.79;61.48;100691.84;4914132;28;20159;-70
2023/01/07 06:14:46;;;;;;;8.73;3.92;;;;;;;-8.78;61.73;100688.56;4954950;28;20140;-70
2023/01/07 06:17:33;;;;;;;8.93;5.05;;;;;;;-8.85;61.41;100696.50;4913665;28;20450;-71
2023/01/07 06:20:24;;;;;;;9.43;4.63;;;;;;;-8.90;61.59;100702.91;4929275;28;20063;-69
2023/01/07 06:23:15;;;;;;;8.52;4.68;;;;;;;-8.91;61.59;100708.75;4874895;28;20127;-69
2023/01/07 06:26:06;;;;;;;9.98;5.10;;;;;;;-8.97;61.62;100710.88;4891504;28;20106;-70
2023/01/07 06:29:18;;;;;;;9.73;5.40;;;;;;;-9.00;62.18;100721.66;4915798;28;20048;-70
2023/01/07 06:31:57;;;;;;;13.95;6.97;;;;;;;-9.01;62.61;100716.47;4894229;28;20079;-71
2023/01/07 06:34:39;;;;;;;9.70;5.40;;;;;;;-9.16;62.06;100717.22;4914784;28;20384;-72
2023/01/07 06:37:22;;;;;;;13.25;6.38;;;;;;;-9.40;62.21;100718.03;4896599;28;20049;-70
2023/01/07 06:40:14;;;;;;;13.15;7.45;;;;;;;-9.68;63.93;100715.16;4889701;28;20094;-73
2023/01/07 06:42:55;;;;;;;12.95;7.40;;;;;;;-9.94;64.55;100715.84;4934244;28;20245;-69
2023/01/07 06:45:59;;;;;;;13.85;8.80;;;;;;;-10.31;64.79;100718.22;4905866;28;20120;-75
2023/01/07 06:48:51;;;;;;;13.00;7.18;;;;;;;-10.73;65.55;100727.78;4929414;28;22038;-69
2023/01/07 06:51:31;;;;;;;10.82;6.63;;;;;;;-11.03;66.23;100726.34;4922888;28;20031;-71
2023/01/07 06:54:20;;;;;;;9.57;5.00;;;;;;;-11.31;67.63;100729.22;4896667;28;20043;-69
2023/01/07 06:57:02;;;;;;;6.07;4.10;;;;;;;-11.59;68.21;100740.44;4890589;28;20362;-69
2023/01/07 07:12:08;;;;;;;7.78;4.50;;;;;;;-13.06;73.08;100760.38;4839338;28;20057;-67
2023/01/07 07:14:56;;;;;;;8.98;4.72;;;;;;;-13.23;73.98;100760.59;4839114;28;20111;-67
2023/01/07 07:17:38;;;;;;;7.57;4.57;;;;;;;-13.31;74.64;100767.50;4867053;28;20051;-67
2023/01/07 07:20:22;;;;;;;8.60;4.85;;;;;;;-13.32;75.23;100760.72;4854797;28;20139;-67
2023/01/07 07:23:12;;;;;;;7.72;4.53;;;;;;;-13.20;75.76;100775.97;4831077;28;20045;-67
2023/01/07 07:25:49;;;;;;;6.95;4.55;;;;;;;-13.22;76.24;100774.94;4801613;28;20046;-67
2023/01/07 07:28:32;;;;;;;8.50;5.22;;;;;;;-13.22;77.01;100781.59;4824804;28;20065;-65
2023/01/07 07:31:45;;;;;;;10.68;4.95;;;;;;;-13.29;76.81;100780.22;4843185;28;20058;-67
2023/01/07 07:34:39;;;;;;;6.97;4.07;;;;;;;-13.37;77.09;100777.06;4864685;28;20052;-67
2023/01/07 07:37:53;;;;;;;9.13;4.63;;;;;;;-13.39;77.62;100782.69;4861874;28;20082;-66
2023/01/07 07:40:39;;;;;;;6.30;4.20;;;;;;;-13.45;78.08;100777.13;4895695;28;20048;-66
2023/01/07 07:46:28;;;;;;;11.18;7.80;;;;;;;-13.54;78.54;100780.59;4963901;28;20047;-66
2023/01/07 07:49:49;;;;;;;8.63;5.63;;;;;;;-13.60;78.96;100777.56;4939524;28;20038;-68
2023/01/07 07:52:34;;;;;;;14.10;7.47;;;;;;;-13.70;78.80;100790.97;4924774;28;20040;-67
2023/01/07 07:55:20;;;;;;;10.35;5.90;;;;;;;-14.04;79.13;100741.88;4885665;28;20056;-67
2023/01/07 07:58:03;;;;;;;7.72;4.50;;;;;;;-13.78;79.24;100786.00;4936983;28;20523;-66
2023/01/07 08:00:45;;;;;;;7.82;4.65;;;;;;;-13.91;79.39;100797.47;4969972;28;20058;-67
2023/01/07 08:03:28;;;;;;;7.13;4.13;;;;;;;-13.81;79.44;100788.25;4962890;28;20064;-67
2023/01/07 08:06:25;;;;;;;6.88;3.95;;;;;;;-13.86;79.32;100789.47;4923978;28;20039;-67
2023/01/07 08:12:14;;;;;;;6.60;4.10;;;;;;;-14.06;79.46;100783.56;4933902;28;20087;-67
2023/01/07 08:14:54;;;;;;;6.93;4.40;;;;;;;-14.12;79.69;100788.03;4927815;28;20038;-66
2023/01/07 08:17:51;;;;;;;8.63;4.88;;;;;;;-14.12;79.99;100793.06;4964019;28;20319;-69
2023/01/07 08:26:37;;;;;;;5.22;3.70;;;;;;;-13.85;80.15;100788.72;4920154;28;20052;-65
2023/01/07 08:29:17;;;;;;;7.05;4.07;;;;;;;-13.74;80.09;100798.09;4932390;28;20047;-67
2023/01/07 08:32:01;;;;;;;20.50;8.27;;;;;;;-13.64;80.05;100800.66;4910546;28;20050;-67
2023/01/07 08:34:56;;;;;;;16.55;8.63;;;;;;;-13.46;79.92;100801.38;4893547;28;20044;-66
2023/01/07 08:37:34;;;;;;;13.98;8.63;;;;;;;-13.28;79.49;100802.09;4895218;28;20080;-66
2023/01/07 08:40:38;;;;;;;11.95;6.75;;;;;;;-13.20;78.51;100813.69;4926114;28;20035;-67
2023/01/07 08:43:46;;;;;;;13.32;7.25;;;;;;;-13.22;77.64;100809.28;4934799;28;20047;-68
2023/01/07 08:46:45;;;;;;;14.98;8.57;;;;;;;-13.34;76.40;100811.63;4863613;28;20058;-67
2023/01/07 08:49:37;;;;;;;8.25;4.35;;;;;;;-13.50;75.70;100815.31;4959893;28;20049;-69
2023/01/07 08:52:10;;;;;;;8.02;4.30;;;;;;;-13.56;75.91;100813.91;4950058;28;20070;-68
2023/01/07 08:54:55;;;;;;;9.05;5.07;;;;;;;-13.60;75.98;100822.81;4919767;28;20044;-68
2023/01/07 08:57:28;;;;;;;8.95;5.43;;;;;;;-13.48;76.25;100818.88;4950890;28;20116;-68
2023/01/07 09:00:19;;;;;;;35.85;15.38;;;;;;;-13.61;75.13;100826.06;4919472;28;20129;-67
2023/01/07 09:03:42;;;;;;;58.58;23.17;;;;;;;-14.05;74.04;100810.44;4923211;28;20071;-67
2023/01/07 09:09:28;;;;;;;13.07;7.97;;;;;;;-14.18;74.74;100832.66;4910396;28;20044;-67
2023/01/07 09:12:08;;;;;;;9.60;6.00;;;;;;;-14.24;74.96;100829.63;4897019;28;20348;-67
2023/01/07 09:17:34;;;;;;;8.85;6.20;;;;;;;-14.31;75.33;100824.78;4908681;28;20058;-66
2023/01/07 09:20:15;;;;;;;10.32;6.97;;;;;;;-14.35;75.40;100829.53;4929901;28;20068;-67
2023/01/07 09:28:46;;;;;;;20.77;10.82;;;;;;;-14.14;75.39;100838.09;4908191;28;21344;-66
2023/01/07 09:31:38;;;;;;;9.63;6.28;;;;;;;-14.27;74.63;100846.91;4894151;28;20333;-68
2023/01/07 09:34:19;;;;;;;15.65;7.43;;;;;;;-14.36;74.51;100844.44;4910254;28;20091;-68
2023/01/07 09:37:22;;;;;;;12.93;6.97;;;;;;;-14.21;74.72;100848.34;4898577;28;20048;-67
2023/01/07 09:43:20;;;;;;;13.80;7.18;;;;;;;-14.13;73.90;100851.53;4892779;28;20077;-67
2023/01/07 09:46:22;;;;;;;12.70;7.68;;;;;;;-14.31;73.37;100849.88;4889143;28;20060;-68
2023/01/07 09:49:18;;;;;;;14.05;6.20;;;;;;;-15.07;72.63;100744.31;4913862;28;20049;-67
2023/01/07 09:52:20;;;;;;;17.17;7.90;;;;;;;-14.79;72.04;100838.91;4951773;28;20049;-67
2023/01/07 09:55:08;;;;;;;18.63;7.97;;;;;;;-15.06;71.94;100842.22;5071989;28;20052;-68
2023/01/07 10:01:29;;;;;;;59.55;16.20;;;;;;;-15.26;72.81;100817.78;4981291;28;20492;-70
2023/01/07 10:04:21;;;;;;;100.72;24.65;;;;;;;-15.83;73.35;100733.91;5006117;28;20046;-67
2023/01/07 10:07:20;;;;;;;63.78;18.23;;;;;;;-15.33;74.31;100830.47;5005870;28;20061;-68
2023/01/07 10:10:14;;;;;;;44.08;15.75;;;;;;;-15.34;75.48;100836.25;5004562;28;20061;-70
2023/01/07 10:16:21;;;;;;;8.88;5.57;;;;;;;-16.05;76.44;100730.09;5007882;28;20072;-67
2023/01/07 10:19:13;;;;;;;6.97;5.07;;;;;;;-15.47;76.62;100828.31;5004280;28;20084;-66
2023/01/07 10:28:05;;;;;;;13.63;5.97;;;;;;;-14.97;77.23;100852.25;4966965;28;20117;-69
2023/01/07 10:30:52;;;;;;;8.07;5.47;;;;;;;-15.11;76.05;100852.56;4924410;28;20271;-69
2023/01/07 10:33:48;;;;;;;;;;;;;;;-15.18;75.49;100850.22;4947672;29;20055;-68
2023/01/07 10:40:03;;;;;;;8.23;4.40;;;;;;;-14.96;75.82;100855.63;4863879;28;20039;-69
2023/01/07 10:43:02;;;;;;;6.47;4.40;;;;;;;-14.86;75.37;100851.59;4959114;28;20050;-68
2023/01/07 10:45:57;;;;;;;18.40;9.20;;;;;;;-15.00;74.43;100856.94;4992458;28;20117;-69
2023/01/07 10:48:54;;;;;;;22.27;7.65;;;;;;;-15.13;74.53;100819.81;4982587;28;20065;-67
2023/01/07 10:52:20;;;;;;;19.58;7.15;;;;;;;-14.80;74.57;100864.75;4983161;28;20050;-68
2023/01/07 10:55:39;;;;;;;22.60;8.00;;;;;;;-14.74;74.30;100866.03;4918953;29;20550;-68
2023/01/07 10:58:49;;;;;;;16.27;5.82;;;;;;;-14.83;73.37;100866.94;4946266;28;20089;-67
2023/01/07 11:01:41;;;;;;;9.15;4.47;;;;;;;-15.82;71.50;100780.78;4981428;28;20042;-68
2023/01/07 11:04:19;;;;;;;12.50;4.82;;;;;;;-15.48;70.59;100874.13;4983884;22;20024;-80
2023/01/07 11:06:56;;;;;;;22.70;8.65;;;;;;;-16.13;69.83;100817.84;4916245;28;20076;-79
2023/01/07 11:09:32;;;;;;;29.83;11.38;;;;;;;-16.55;69.63;100792.88;4855852;28;20298;-81
2023/01/07 11:12:09;;;;;;;75.72;31.50;;;;;;;-15.94;70.39;100867.22;4845587;28;20046;-80
2023/01/07 11:14:44;;;;;;;36.30;14.23;;;;;;;-15.97;70.72;100879.41;4851640;28;20061;-79
2023/01/07 11:17:26;;;;;;;31.13;12.98;;;;;;;-16.70;70.94;100796.38;4846134;28;20605;-79
2023/01/07 11:20:01;;;;;;;35.72;13.13;;;;;;;-16.03;71.81;100886.31;4868580;28;20373;-80
2023/01/07 11:22:34;;;;;;;40.13;15.10;;;;;;;-16.01;71.79;100882.38;4859093;28;20257;-80
2023/01/07 11:25:28;;;;;;;33.67;14.05;;;;;;;-16.12;71.47;100879.69;4864787;28;20682;-80
2023/01/07 11:28:04;;;;;;;17.02;8.02;;;;;;;-16.17;70.82;100890.88;4844623;28;20034;-79
2023/01/07 11:30:39;;;;;;;10.68;5.78;;;;;;;-16.33;70.40;100888.44;4860255;28;20061;-79
2023/01/07 11:33:23;;;;;;;11.32;5.68;;;;;;;-16.48;70.35;100886.03;4850983;28;20043;-80
2023/01/07 11:36:15;;;;;;;28.48;10.20;;;;;;;-16.54;70.79;100882.19;4836346;28;20045;-79
2023/01/07 11:38:47;;;;;;;19.13;8.15;;;;;;;-16.63;71.43;100881.28;4859409;28;20098;-79
2023/01/07 11:41:25;;;;;;;20.70;7.80;;;;;;;-16.74;72.18;100896.81;4860423;28;20149;-78
2023/01/07 11:43:58;;;;;;;13.32;7.30;;;;;;;-16.79;72.61;100883.88;4841536;28;20055;-80
2023/01/07 11:46:31;;;;;;;7.43;4.15;;;;;;;-16.79;73.54;100873.88;4852003;28;20098;-80
2023/01/07 11:49:05;;;;;;;4.55;3.55;;;;;;;-16.67;73.94;100889.22;4860111;28;20042;-81
2023/01/07 11:51:41;;;;;;;6.28;4.38;;;;;;;-16.56;74.83;100863.66;4887479;28;20055;-83
2023/01/07 11:54:22;;;;;;;8.48;4.65;;;;;;;-15.94;76.15;100862.19;4875061;28;20218;-80
2023/01/07 12:00:39;;;;;;;6.25;3.42;;;;;;;-16.07;73.85;100867.63;4883990;28;20061;-81
2023/01/07 12:03:17;;;;;;;4.03;3.63;;;;;;;-16.27;72.49;100887.28;4860080;28;20053;-82
2023/01/07 12:05:58;;;;;;;7.05;3.85;;;;;;;-16.64;71.99;100849.50;4883167;28;20108;-82
2023/01/07 12:08:36;;;;;;;6.82;4.63;;;;;;;-16.39;71.70;100897.84;4893965;28;20093;-81
2023/01/07 12:11:13;;;;;;;6.45;4.70;;;;;;;-16.52;71.74;100880.75;4852622;28;20081;-81
2023/01/07 12:13:51;;;;;;;6.43;4.65;;;;;;;-16.33;72.12;100903.47;4840180;28;20050;-82
2023/01/07 12:16:38;;;;;;;6.78;4.40;;;;;;;-16.24;71.99;100903.50;4868356;28;20426;-82
2023/01/07 12:19:32;;;;;;;7.10;5.18;;;;;;;-16.54;71.13;100896.34;4847272;28;20061;-80
2023/01/07 12:22:39;;;;;;;15.48;9.77;;;;;;;-16.92;71.45;100849.97;4874488;28;20077;-83
2023/01/07 12:25:44;;;;;;;5.50;4.15;;;;;;;-17.12;71.40;100851.38;4891134;28;20054;-83
2023/01/07 12:29:25;;;;;;;;;;;;;;;;;;;;;
2023/01/07 12:32:50;;;;;;;4.22;3.78;;;;;;;-16.88;72.76;100902.06;4816900;28;20086;-83
2023/01/07 12:35:46;;;;;;;5.57;4.13;;;;;;;-16.85;73.17;100897.38;4816551;28;20432;-82
2023/01/07 12:38:40;;;;;;;13.90;6.38;;;;;;;-17.57;73.20;100813.44;4890336;28;20053;-80
2023/01/07 12:41:20;;;;;;;19.65;9.82;;;;;;;-17.71;73.33;100783.69;4883889;28;20048;-79
2023/01/07 12:44:01;;;;;;;20.38;8.52;;;;;;;-17.14;73.50;100886.91;4861924;28;20052;-81
2023/01/07 12:46:39;;;;;;;18.05;7.60;;;;;;;-17.03;74.19;100894.75;4841514;28;20235;-82
2023/01/07 12:49:18;;;;;;;26.80;11.70;;;;;;;-16.87;74.27;100899.72;4851531;28;20046;-81
2023/01/07 12:55:01;;;;;;;10.35;5.93;;;;;;;-17.01;72.90;100894.94;4220528;26;20041;-71
2023/01/07 12:58:04;;;;;;;4.35;3.72;;;;;;;-17.08;72.63;100893.41;4849340;28;20061;-67
2023/01/07 13:00:55;;;;;;;5.93;3.42;;;;;;;-17.19;72.59;100883.94;4860779;28;20501;-66
2023/01/07 13:04:23;;;;;;;3.53;3.22;;;;;;;-17.15;72.11;100901.00;4827438;28;20740;-69
2023/01/07 13:07:22;;;;;;;8.43;4.30;;;;;;;-17.31;71.76;100912.66;4853281;28;20085;-68
2023/01/07 13:10:16;;;;;;;8.82;4.00;;;;;;;-17.24;72.21;100910.06;4837589;28;20071;-72
2023/01/07 13:13:16;;;;;;;6.20;3.88;;;;;;;-17.24;72.31;100905.06;4912495;28;20672;-68
2023/01/07 13:18:50;;;;;;;4.00;3.45;;;;;;;-17.60;72.41;100858.06;5002148;23;20055;-83
2023/01/07 13:21:28;;;;;;;6.30;4.03;;;;;;;-18.01;72.83;100812.25;4851287;28;20050;-83
2023/01/07 13:24:15;;;;;;;5.57;3.58;;;;;;;-17.40;71.99;100902.59;4881670;28;20076;-82
2023/01/07 13:26:56;;;;;;;8.45;4.22;;;;;;;-17.43;72.51;100892.28;4883455;28;20251;-83
2023/01/07 13:29:57;;;;;;;4.57;3.53;;;;;;;-17.38;72.48;100885.28;4886303;28;20053;-83
2023/01/07 13:33:05;;;;;;;5.40;3.60;;;;;;;-17.23;72.74;100901.84;4911693;28;20049;-83
2023/01/07 13:36:04;;;;;;;5.25;3.20;;;;;;;-17.27;72.64;100909.72;4855389;28;20048;-83
2023/01/07 13:38:58;;;;;;;5.72;3.50;;;;;;;-17.44;72.97;100881.41;4879226;28;20057;-85
2023/01/07 13:41:46;;;;;;;4.78;3.47;;;;;;;-17.44;72.38;100906.41;4878374;28;20408;-83
2023/01/07 13:44:43;;;;;;;3.97;3.55;;;;;;;-17.61;72.40;100886.28;4922867;28;20046;-84
2023/01/07 13:47:24;;;;;;;9.10;3.83;;;;;;;-17.82;72.38;100877.44;4879424;28;20046;-83
2023/01/07 13:50:00;;;;;;;5.35;4.22;;;;;;;-17.60;73.01;100898.03;4894045;28;20057;-83
2023/01/07 13:52:34;;;;;;;6.05;4.22;;;;;;;-17.86;73.45;100866.28;4857658;28;20062;-84
2023/01/07 13:55:38;;;;;;;9.35;4.30;;;;;;;-17.45;73.42;100913.72;4850640;28;20353;-87
2023/01/07 13:58:48;;;;;;;4.88;3.65;;;;;;;-17.54;72.80;100913.66;4915629;29;20054;-84
2023/01/07 14:01:23;;;;;;;5.65;3.92;;;;;;;-17.96;72.46;100842.69;4802667;28;20215;-83
2023/01/07 14:04:21;;;;;;;5.63;3.97;;;;;;;-17.69;72.34;100902.06;4876929;28;20403;-84
2023/01/07 14:06:59;;;;;;;6.50;3.90;;;;;;;-17.62;72.60;100915.34;5010535;28;20072;-84
2023/01/07 14:09:42;;;;;;;5.20;3.33;;;;;;;-17.55;72.33;100899.38;4898935;28;20053;-84
2023/01/07 14:12:54;;;;;;;6.45;4.00;;;;;;;-17.44;72.67;100898.91;4917933;28;20063;-84
2023/01/07 14:16:05;;;;;;;6.97;4.15;;;;;;;-17.38;72.80;100897.75;4916187;28;20293;-85
2023/01/07 14:19:31;;;;;;;6.20;4.10;;;;;;;-17.70;72.51;100835.38;4841354;28;20047;-84
2023/01/07 14:22:26;;;;;;;5.82;4.07;;;;;;;-17.68;73.09;100798.97;4824076;28;20058;-85
2023/01/07 14:26:25;;;;;;;6.72;3.58;;;;;;;-17.90;73.03;100716.94;4765502;28;20131;-84
2023/01/07 14:29:32;;;;;;;5.03;3.55;;;;;;;-17.77;72.75;100738.13;4815127;28;20039;-86
2023/01/07 14:32:45;;;;;;;6.28;3.55;;;;;;;-17.14;72.33;100902.78;4791054;28;20087;-85
2023/01/07 14:39:47;;;;;;;4.53;3.50;;;;;;;-17.68;72.11;100756.53;4801983;28;20354;-86
2023/01/07 14:43:04;;;;;;;8.98;4.25;;;;;;;-16.71;72.26;100882.13;4803441;28;20066;-82
2023/01/07 14:45:58;;;;;;;4.70;3.70;;;;;;;-17.13;71.29;100824.59;4815639;28;20038;-83